ADDS METAR Data INFO
IDs: Format: Raw Decoded Include TAF

Data at: 0856 UTC 19 Jun 2018

KGUC 190756Z AUTO 00000KT 10SM CLR 09/03 A3023 RMK AO2 SLP157 T00890033
KGUC 190656Z AUTO 04005KT 10SM CLR 12/04 A3023 RMK AO2 SLP155 T01170039
KGUC 190556Z AUTO 36009KT 10SM CLR 13/04 A3023 RMK AO2 SLP157 T01280039 10244 20128 402500061 51008
KGUC 190456Z AUTO 36006KT 10SM CLR 15/05 A3023 RMK AO2 SLP155 T01500050
KGUC 190356Z AUTO 34007KT 10SM BKN100 18/02 A3021 RMK AO2 SLP153 T01780022
KGUC 190256Z AUTO 00000KT 10SM OVC100 21/01 A3020 RMK AO2 SLP147 T02060011 53014
KGUC 190156Z AUTO 30009KT 10SM OVC100 23/00 A3018 RMK AO2 SLP140 T02280000
KGUC 190056Z AUTO 30012KT 10SM BKN100 24/01 A3015 RMK AO2 SLP135 T02390006
KGUC 182356Z AUTO 25011G17KT 10SM SCT100 24/02 A3015 RMK AO2 SLP132 T02440017 10250 20194 56005
KGUC 182256Z AUTO 24008KT 10SM CLR 24/02 A3015 RMK AO2 SLP129 T02440017
KGUC 182156Z AUTO 24004G14KT 10SM CLR 24/02 A3016 RMK AO2 SLP132 T02440017
KGUC 182056Z AUTO 25005KT 10SM CLR 23/02 A3016 RMK AO2 SLP138 T02280022 56014
KGUC 181956Z AUTO 24009G15KT 10SM CLR 23/03 A3018 RMK AO2 SLP140 T02280033
KGUC 181856Z AUTO 27011G16KT 10SM CLR 22/03 A3019 RMK AO2 SLP145 T02170033
KGUC 181756Z AUTO 00000KT 10SM CLR 19/05 A3022 RMK AO2 SLP153 T01940050 10194 20072 56011
KGUC 181656Z AUTO VRB04KT 10SM CLR 18/08 A3023 RMK AO2 SLP161 T01780078
KGUC 181556Z AUTO 00000KT 10SM CLR 14/08 A3024 RMK AO2 SLP177 T01390078
KGUC 181526Z AUTO 20004KT 10SM FEW014 13/08 A3025 RMK AO2
KGUC 181456Z AUTO 00000KT 10SM BKN010 12/08 A3026 RMK AO2 CIG 008V012 SLP183 T01170083 53006
KGUC 181409Z AUTO 26004KT 10SM BKN008 BKN015 09/08 A3026 RMK AO2
KGUC 181356Z AUTO 20005KT 10SM SCT004 BKN015 09/08 A3025 RMK AO2 SLP185 T00940078
KGUC 181310Z AUTO 00000KT 10SM BKN006 OVC011 08/07 A3024 RMK AO2
KGUC 181256Z AUTO 00000KT 10SM BKN011 07/07 A3024 RMK AO2 CIG 006V014 SLP185 T00720067
KGUC 181254Z AUTO 00000KT 10SM BKN011 07/06 A3023 RMK AO2 CIG 007V014
KGUC 181156Z AUTO 00000KT 10SM FEW005 07/06 A3023 RMK AO2 SLP184 70007 T00670061 10122 20061 53009
KGUC 181056Z AUTO 00000KT 10SM SCT016 07/07 A3022 RMK AO2 SLP172 T00720067
KGUC 181010Z AUTO 00000KT 10SM BKN018 08/07 A3021 RMK AO2
KGUC 180956Z AUTO 00000KT 10SM SCT018 08/07 A3021 RMK AO2 SLP167 T00780067
KGUC 180856Z AUTO 00000KT 10SM CLR 08/08 A3020 RMK AO2 SLP162 T00830078 53000
KGUC 180756Z AUTO 20003KT 10SM CLR 09/08 A3019 RMK AO2 SLP160 T00940083
KGUC 180656Z AUTO 00000KT 10SM SCT095 SCT110 11/09 A3019 RMK AO2 SLP158 T01060089
KGUC 180556Z AUTO 06005KT 10SM BKN095 12/10 A3020 RMK AO2 SLP153 60001 T01220100 10172 20122 401890117 51010
KGUC 180456Z AUTO 03005KT 10SM SCT060 BKN080 13/09 A3019 RMK AO2 SLP153 T01280094
KGUC 180356Z AUTO 07008G14KT 10SM FEW065 OVC110 13/10 A3018 RMK AO2 RAE36 SLP156 P0001 T01280100
KGUC 180256Z AUTO VRB04KT 10SM -RA BKN070 OVC095 14/11 A3016 RMK AO2 RAB46 SLP145 P0000 60000 T01440111 53015
KGUC 180217Z AUTO 12007KT 10SM SCT029 BKN080 OVC090 15/09 A3014 RMK AO2
KGUC 180156Z AUTO 17007KT 10SM BKN029 OVC049 16/10 A3014 RMK AO2 SLP138 T01560100
KGUC 180056Z AUTO 25005KT 10SM SCT035 OVC070 16/12 A3013 RMK AO2 TSE05RAB30E53 SLP133 P0000 T01560117
KGUC 180016Z AUTO 28006KT 10SM SCT037 BKN049 OVC120 17/11 A3011 RMK AO2 TSE05
KGUC 172356Z AUTO VRB03KT 10SM VCTS BKN039 BKN120 17/10 A3011 RMK AO2 TSB50 SLP121 60000 T01670100 10189 20161 53002
KGUC 172256Z AUTO 11011KT 10SM FEW041 18/10 A3010 RMK AO2 WSHFT 2236 RAB2159E35 SLP116 P0000 T01780100
KGUC 172156Z AUTO 00000KT 10SM SCT043 OVC080 18/09 A3010 RMK AO2 LTG DSNT SW AND W SLP116 T01830089